Time;durP1;ratioP1;P1;durP2;ratioP2;P2;SDS_P1;SDS_P2;PMS_P1;PMS_P2;Temp;Humidity;BMP_temperature;BMP_pressure;BME280_temperature;BME280_humidity;BME280_pressure;Samples;Min_cycle;Max_cycle;Signal;HPM_P1;HPM_P2
2023/01/18 00:00:31;;;;;;;5.60;4.72;;;2.70;99.90;;;;;;5032682;28;20029;-53
2023/01/18 00:02:57;;;;;;;5.32;4.82;;;2.70;99.90;;;;;;5032722;28;20030;-53
2023/01/18 00:05:23;;;;;;;5.63;4.68;;;2.70;99.90;;;;;;5032615;28;20368;-49
2023/01/18 00:07:51;;;;;;;6.22;5.00;;;2.70;99.90;;;;;;5032504;28;20032;-50
2023/01/18 00:10:17;;;;;;;4.65;4.25;;;2.70;99.90;;;;;;5032431;28;20037;-49
2023/01/18 00:12:43;;;;;;;6.05;4.75;;;2.70;99.90;;;;;;5032352;28;20392;-49
2023/01/18 00:15:09;;;;;;;4.95;4.45;;;2.70;99.90;;;;;;5032385;28;20104;-50
2023/01/18 00:17:46;;;;;;;5.35;4.60;;;2.70;99.90;;;;;;5032187;28;20033;-55
2023/01/18 00:20:15;;;;;;;7.28;4.50;;;2.60;99.90;;;;;;5032294;28;20058;-53
2023/01/18 00:22:41;;;;;;;5.38;4.88;;;2.60;99.90;;;;;;5032082;28;20431;-56
2023/01/18 00:25:09;;;;;;;5.78;4.40;;;2.50;99.90;;;;;;5032321;28;20088;-54
2023/01/18 00:27:36;;;;;;;5.35;4.45;;;2.50;99.90;;;;;;5032392;28;20036;-51
2023/01/18 00:30:04;;;;;;;6.40;4.88;;;2.50;99.90;;;;;;5032453;28;20031;-51
2023/01/18 00:32:29;;;;;;;12.10;7.10;;;2.40;99.90;;;;;;5032152;28;20480;-52
2023/01/18 00:34:55;;;;;;;5.72;4.75;;;2.40;99.90;;;;;;5032166;28;20075;-52
2023/01/18 00:37:23;;;;;;;4.97;4.47;;;2.40;99.90;;;;;;5031986;28;20037;-56
2023/01/18 00:39:49;;;;;;;5.90;5.18;;;2.30;99.90;;;;;;5031868;28;20033;-56
2023/01/18 00:44:59;;;;;;;9.57;5.85;;;2.20;99.90;;;;;;5032045;28;20088;-50
2023/01/18 00:47:26;;;;;;;7.95;5.75;;;2.20;99.90;;;;;;5031846;28;20539;-49
2023/01/18 00:49:51;;;;;;;5.97;5.38;;;2.10;99.90;;;;;;5031387;28;20037;-55
2023/01/18 00:52:17;;;;;;;8.57;5.40;;;2.10;99.90;;;;;;5031802;28;20025;-52
2023/01/18 00:54:42;;;;;;;8.60;7.13;;;2.00;99.90;;;;;;5031531;28;20017;-55
2023/01/18 00:57:08;;;;;;;10.00;6.90;;;2.00;99.90;;;;;;5031677;28;20025;-54
2023/01/18 00:59:34;;;;;;;7.72;5.75;;;2.00;99.90;;;;;;5031787;28;20026;-55
2023/01/18 01:01:59;;;;;;;7.45;5.97;;;1.90;99.90;;;;;;5031505;28;20025;-50
2023/01/18 01:07:10;;;;;;;6.53;5.90;;;1.80;99.90;;;;;;5031676;28;20043;-55
2023/01/18 01:09:36;;;;;;;7.35;6.25;;;1.80;99.90;;;;;;5031393;28;20079;-51
2023/01/18 01:26:09;;;;;;;7.78;6.10;;;1.40;99.90;;;;;;5031733;28;20052;-53
2023/01/18 01:28:45;;;;;;;6.05;5.45;;;1.30;99.90;;;;;;5031386;28;20486;-56
2023/01/18 01:31:13;;;;;;;8.55;6.25;;;1.30;99.90;;;;;;5031428;28;20028;-52
2023/01/18 01:33:39;;;;;;;8.70;5.93;;;1.20;99.90;;;;;;5031117;28;20082;-52
2023/01/18 01:36:06;;;;;;;11.77;6.22;;;1.20;99.90;;;;;;5031346;28;20010;-53
2023/01/18 01:38:32;;;;;;;6.00;5.50;;;1.20;99.90;;;;;;5031323;28;20087;-51
2023/01/18 01:41:00;;;;;;;8.57;5.50;;;1.20;99.90;;;;;;5031290;28;20056;-50
2023/01/18 01:43:39;;;;;;;7.00;5.18;;;1.10;99.90;;;;;;5031350;28;20025;-50
2023/01/18 01:46:28;;;;;;;6.20;5.20;;;1.10;99.90;;;;;;5030832;28;20046;-53
2023/01/18 01:48:59;;;;;;;5.75;5.18;;;1.20;99.90;;;;;;5031267;28;20068;-54
2023/01/18 01:51:25;;;;;;;5.80;5.20;;;1.20;99.90;;;;;;5030914;28;20037;-53
2023/01/18 01:53:51;;;;;;;6.40;5.20;;;1.10;99.90;;;;;;5030979;28;20029;-51
2023/01/18 01:56:19;;;;;;;6.32;5.68;;;1.20;99.90;;;;;;5031205;28;20072;-55
2023/01/18 01:58:47;;;;;;;5.68;5.05;;;1.20;99.90;;;;;;5030996;28;20025;-51
2023/01/18 02:01:13;;;;;;;6.30;5.20;;;1.30;99.90;;;;;;5031827;28;20461;-53
2023/01/18 02:03:39;;;;;;;9.60;5.85;;;1.30;99.90;;;;;;5034614;28;20034;-51
2023/01/18 02:06:30;;;;;;;6.32;5.63;;;1.30;99.90;;;;;;5034901;28;20030;-50
2023/01/18 02:09:04;;;;;;;5.15;4.75;;;1.30;99.90;;;;;;5033326;28;20041;-54
2023/01/18 02:11:30;;;;;;;8.73;5.60;;;1.30;99.90;;;;;;5034586;28;20029;-50
2023/01/18 02:13:59;;;;;;;5.05;4.55;;;1.30;99.90;;;;;;5034593;28;20028;-52
2023/01/18 02:16:52;;;;;;;11.30;5.57;;;1.30;99.90;;;;;;5034733;28;20017;-55
2023/01/18 02:19:47;;;;;;;5.00;4.60;;;1.30;99.90;;;;;;5034513;28;20018;-53
2023/01/18 02:22:40;;;;;;;5.45;4.90;;;1.30;99.90;;;;;;5033175;28;20026;-51
2023/01/18 02:25:19;;;;;;;8.90;5.22;;;1.20;99.90;;;;;;5034576;28;20025;-53
2023/01/18 02:27:51;;;;;;;8.32;4.60;;;1.30;99.90;;;;;;5034066;28;20045;-51
2023/01/18 02:30:45;;;;;;;4.80;4.20;;;1.40;99.90;;;;;;5034309;28;20034;-52
2023/01/18 02:33:55;;;;;;;4.57;4.18;;;1.40;99.90;;;;;;5019031;28;20382;-52
2023/01/18 02:36:33;;;;;;;5.18;4.40;;;1.40;99.90;;;;;;5034263;28;20033;-50
2023/01/18 02:39:05;;;;;;;4.25;3.95;;;1.40;99.90;;;;;;5034167;28;20146;-52
2023/01/18 02:47:17;;;;;;;4.68;4.10;;;1.50;99.90;;;;;;5034057;28;20393;-54
2023/01/18 02:49:43;;;;;;;5.00;3.83;;;1.60;99.90;;;;;;5033643;28;20025;-52
2023/01/18 02:52:40;;;;;;;4.30;3.90;;;1.60;99.90;;;;;;5033946;28;20112;-49
2023/01/18 02:55:20;;;;;;;3.55;3.25;;;1.60;99.90;;;;;;5032555;28;20461;-54
2023/01/18 02:57:46;;;;;;;5.90;3.90;;;1.70;99.90;;;;;;5033778;28;20407;-52
2023/01/18 03:00:16;;;;;;;4.22;3.85;;;1.60;99.90;;;;;;5033870;28;20033;-50
2023/01/18 03:02:44;;;;;;;3.88;3.58;;;1.60;99.90;;;;;;5033570;28;20036;-49
2023/01/18 03:05:11;;;;;;;4.93;3.40;;;1.70;99.90;;;;;;5033509;28;20026;-51
2023/01/18 03:08:05;;;;;;;6.85;4.85;;;1.70;99.90;;;;;;5033585;28;20083;-54
2023/01/18 03:10:33;;;;;;;;;;;1.50;99.90;;;;;;5034075;28;20083;-52
2023/01/18 03:13:16;;;;;;;6.18;3.80;;;1.50;99.90;;;;;;5033425;28;19916;-51
2023/01/18 03:15:55;;;;;;;4.05;3.75;;;1.40;99.90;;;;;;5033444;28;20025;-53
2023/01/18 03:18:33;;;;;;;4.60;4.20;;;1.30;99.90;;;;;;5033418;28;20036;-55
2023/01/18 03:21:04;;;;;;;5.30;4.55;;;1.30;99.90;;;;;;5033367;28;20030;-56
2023/01/18 03:23:38;;;;;;;4.88;3.53;;;1.20;99.90;;;;;;5033439;28;20552;-54
2023/01/18 03:26:18;;;;;;;8.27;5.35;;;1.10;99.90;;;;;;5033339;28;20079;-53
2023/01/18 03:35:02;;;;;;;4.20;3.90;;;1.00;99.90;;;;;;5033142;28;20037;-54
2023/01/18 03:37:36;;;;;;;3.90;3.60;;;1.00;99.90;;;;;;5033117;28;20025;-54
2023/01/18 03:40:11;;;;;;;6.18;4.78;;;0.90;99.90;;;;;;5033029;28;20025;-50
2023/01/18 03:43:13;;;;;;;5.60;5.10;;;0.90;99.90;;;;;;5032871;28;20102;-53
2023/01/18 03:45:41;;;;;;;4.47;3.75;;;0.90;99.90;;;;;;5031464;28;20038;-52
2023/01/18 03:48:08;;;;;;;3.95;3.63;;;0.90;99.90;;;;;;5032939;28;20473;-52
2023/01/18 03:50:53;;;;;;;4.15;3.75;;;0.90;99.90;;;;;;5032636;28;20038;-55
2023/01/18 03:53:37;;;;;;;4.13;3.60;;;0.80;99.90;;;;;;5032905;28;20032;-54
2023/01/18 03:56:21;;;;;;;3.40;3.17;;;0.90;99.90;;;;;;5032625;28;20465;-53
2023/01/18 03:58:48;;;;;;;;;;;0.90;99.90;;;;;;5033124;28;20357;-51
2023/01/18 04:01:15;;;;;;;6.40;4.75;;;0.90;99.90;;;;;;5032770;28;19905;-52
2023/01/18 04:03:40;;;;;;;5.70;5.20;;;0.90;99.90;;;;;;5032373;28;20089;-50
2023/01/18 04:06:07;;;;;;;5.18;4.72;;;1.00;99.90;;;;;;5032637;28;20033;-49
2023/01/18 04:08:32;;;;;;;4.45;4.05;;;1.00;99.90;;;;;;5032632;28;20025;-52
2023/01/18 04:10:58;;;;;;;3.83;3.53;;;1.00;99.90;;;;;;5032266;28;20500;-55
2023/01/18 04:13:24;;;;;;;4.97;4.57;;;1.20;99.90;;;;;;5032350;28;20086;-51
2023/01/18 04:15:49;;;;;;;3.60;3.30;;;1.20;99.90;;;;;;5032219;28;20526;-53
2023/01/18 04:18:15;;;;;;;4.80;3.97;;;1.10;99.90;;;;;;5032147;28;20017;-52
2023/01/18 04:20:41;;;;;;;4.13;3.58;;;1.10;99.90;;;;;;5032044;28;20171;-52
2023/01/18 04:23:06;;;;;;;4.10;3.65;;;1.10;99.90;;;;;;5032248;28;20033;-50
2023/01/18 04:25:32;;;;;;;6.53;3.85;;;1.10;99.90;;;;;;5031871;28;20029;-54
2023/01/18 04:27:58;;;;;;;3.60;3.30;;;1.10;99.90;;;;;;5032115;28;20021;-51
2023/01/18 04:30:23;;;;;;;8.43;3.47;;;1.00;99.90;;;;;;5032009;28;20064;-54
2023/01/18 04:32:49;;;;;;;4.85;3.70;;;1.00;99.90;;;;;;5031615;28;20032;-53
2023/01/18 04:35:15;;;;;;;5.07;4.22;;;1.00;99.90;;;;;;5032096;28;20084;-55
2023/01/18 04:37:40;;;;;;;3.78;3.47;;;1.00;99.90;;;;;;5031910;28;20087;-51
2023/01/18 04:40:07;;;;;;;4.07;3.67;;;0.90;99.90;;;;;;5031948;28;20030;-54
2023/01/18 04:42:33;;;;;;;4.35;3.97;;;0.90;99.90;;;;;;5030462;28;20080;-54
2023/01/18 04:44:59;;;;;;;4.10;3.70;;;0.90;99.90;;;;;;5031853;28;20053;-51
2023/01/18 04:47:27;;;;;;;5.07;4.57;;;1.00;99.90;;;;;;5031340;28;20021;-55
2023/01/18 04:49:53;;;;;;;6.25;5.13;;;0.90;99.90;;;;;;5031094;28;20436;-55
2023/01/18 04:52:19;;;;;;;6.20;5.60;;;0.90;99.90;;;;;;5031919;28;20100;-52
2023/01/18 04:54:45;;;;;;;5.32;4.82;;;0.90;99.90;;;;;;5031788;28;20401;-51
2023/01/18 04:57:10;;;;;;;32.10;4.80;;;0.90;99.90;;;;;;5031787;28;20021;-55
2023/01/18 04:59:38;;;;;;;4.25;3.85;;;0.80;99.90;;;;;;5031515;28;20025;-55
2023/01/18 05:02:03;;;;;;;4.10;3.80;;;0.70;99.90;;;;;;5031619;28;20426;-56
2023/01/18 05:04:29;;;;;;;4.93;4.35;;;0.70;99.90;;;;;;5031879;28;20105;-50
2023/01/18 05:06:55;;;;;;;7.13;6.40;;;0.70;99.90;;;;;;5031363;28;20033;-53
2023/01/18 05:09:21;;;;;;;5.47;4.80;;;0.60;99.90;;;;;;5031379;28;20112;-52
2023/01/18 05:11:46;;;;;;;5.20;4.35;;;0.70;99.90;;;;;;5031115;28;20025;-52
2023/01/18 05:14:12;;;;;;;5.68;4.57;;;0.70;99.90;;;;;;5031109;28;20049;-54
2023/01/18 05:16:38;;;;;;;3.25;3.05;;;0.80;99.90;;;;;;5029967;28;20108;-53
2023/01/18 05:19:03;;;;;;;3.70;3.40;;;0.80;99.90;;;;;;5030286;28;20078;-51
2023/01/18 05:21:29;;;;;;;7.45;3.72;;;0.90;99.90;;;;;;5030182;28;20444;-49
2023/01/18 05:23:55;;;;;;;7.10;4.22;;;1.00;99.90;;;;;;5030157;28;20025;-54
2023/01/18 05:26:22;;;;;;;4.03;3.63;;;1.00;99.90;;;;;;5031143;28;20385;-53
2023/01/18 05:28:49;;;;;;;3.80;3.50;;;1.00;99.90;;;;;;5030940;28;20031;-52
2023/01/18 05:31:17;;;;;;;5.15;4.22;;;1.00;99.90;;;;;;5030075;28;20048;-51
2023/01/18 05:33:43;;;;;;;4.93;3.70;;;1.00;99.90;;;;;;5029855;28;20018;-53
2023/01/18 05:36:08;;;;;;;4.03;3.45;;;1.00;99.90;;;;;;5031688;28;20514;-51
2023/01/18 05:38:34;;;;;;;5.13;3.40;;;1.10;99.90;;;;;;5035012;28;20014;-55
2023/01/18 05:41:00;;;;;;;4.32;3.70;;;1.10;99.90;;;;;;5034109;28;20022;-53
2023/01/18 05:43:28;;;;;;;5.43;4.03;;;1.10;99.90;;;;;;5034661;28;20115;-51
2023/01/18 05:45:53;;;;;;;4.63;4.22;;;1.10;99.90;;;;;;5034507;28;20114;-50
2023/01/18 05:48:20;;;;;;;4.28;3.88;;;1.10;99.90;;;;;;5034556;28;20021;-54
2023/01/18 05:50:47;;;;;;;7.15;4.03;;;1.10;99.90;;;;;;5034700;28;20018;-53
2023/01/18 05:53:15;;;;;;;5.50;4.25;;;1.00;99.90;;;;;;5035082;28;20032;-55
2023/01/18 05:55:41;;;;;;;4.55;3.47;;;1.00;99.90;;;;;;5034985;28;20024;-53
2023/01/18 05:58:07;;;;;;;6.22;4.22;;;1.00;99.90;;;;;;5034482;28;20022;-55
2023/01/18 06:00:33;;;;;;;8.82;4.13;;;0.90;99.90;;;;;;5033584;28;20029;-54
2023/01/18 06:02:59;;;;;;;7.65;4.47;;;0.90;99.90;;;;;;5034168;28;20041;-52
2023/01/18 06:05:25;;;;;;;12.88;8.05;;;0.90;99.90;;;;;;5032224;28;20048;-55
2023/01/18 06:07:51;;;;;;;8.85;5.80;;;0.90;99.90;;;;;;5033456;28;20391;-55
2023/01/18 06:10:17;;;;;;;5.78;5.22;;;1.00;99.90;;;;;;5033269;28;20434;-52
2023/01/18 06:12:43;;;;;;;7.95;4.25;;;1.00;99.90;;;;;;5033633;28;20079;-55
2023/01/18 06:15:14;;;;;;;5.60;4.32;;;1.00;99.90;;;;;;5033956;28;20483;-55
2023/01/18 06:17:40;;;;;;;5.13;4.35;;;1.00;99.90;;;;;;5033796;28;20017;-52
2023/01/18 06:20:06;;;;;;;17.70;4.60;;;1.00;99.90;;;;;;5032781;28;20079;-55
2023/01/18 06:22:32;;;;;;;10.30;4.93;;;1.00;99.90;;;;;;5034786;28;20030;-56
2023/01/18 06:24:58;;;;;;;7.50;5.10;;;1.10;99.90;;;;;;5034033;28;20202;-55
2023/01/18 06:27:23;;;;;;;11.57;5.30;;;1.10;99.90;;;;;;5034656;28;20072;-52
2023/01/18 06:29:49;;;;;;;15.82;5.68;;;1.00;99.90;;;;;;5034066;28;20083;-56
2023/01/18 06:32:15;;;;;;;10.43;7.80;;;1.00;99.90;;;;;;5034329;28;20025;-51
2023/01/18 06:34:41;;;;;;;6.88;4.45;;;1.00;99.90;;;;;;5034214;28;20028;-52
2023/01/18 06:37:07;;;;;;;5.20;4.80;;;1.00;99.90;;;;;;5034287;28;20100;-55
2023/01/18 06:39:34;;;;;;;19.92;9.23;;;1.00;99.90;;;;;;5034186;28;20473;-54
2023/01/18 06:41:59;;;;;;;11.40;5.15;;;1.00;99.90;;;;;;5034070;28;20044;-54
2023/01/18 06:44:25;;;;;;;7.82;5.53;;;1.00;99.90;;;;;;5033914;28;20030;-54
2023/01/18 06:46:51;;;;;;;35.92;16.42;;;1.10;99.90;;;;;;5033409;28;20033;-54
2023/01/18 06:49:16;;;;;;;86.38;39.17;;;1.10;99.90;;;;;;5034101;28;20056;-50
2023/01/18 06:51:42;;;;;;;164.48;53.38;;;1.10;99.90;;;;;;5033865;28;20029;-55
2023/01/18 06:54:08;;;;;;;35.50;13.32;;;1.10;99.90;;;;;;5032723;28;20030;-55
2023/01/18 06:56:34;;;;;;;107.88;33.83;;;1.00;99.90;;;;;;5033751;28;20030;-57
2023/01/18 06:59:00;;;;;;;85.88;41.28;;;1.00;99.90;;;;;;5033890;28;20168;-56
2023/01/18 07:01:26;;;;;;;12.90;8.27;;;1.10;99.90;;;;;;5033879;28;20108;-57
2023/01/18 07:03:52;;;;;;;28.25;18.67;;;1.20;99.90;;;;;;5033727;28;20029;-58
2023/01/18 07:06:18;;;;;;;19.55;12.23;;;1.20;99.90;;;;;;5033733;28;20030;-58
2023/01/18 07:08:44;;;;;;;7.75;6.25;;;1.20;99.90;;;;;;5033642;28;20469;-58
2023/01/18 07:11:11;;;;;;;6.68;5.85;;;1.20;99.90;;;;;;5033398;28;20037;-58
2023/01/18 07:13:42;;;;;;;12.85;5.97;;;1.20;99.90;;;;;;5033382;28;20049;-54
2023/01/18 07:16:12;;;;;;;10.30;6.78;;;1.20;99.90;;;;;;5033452;28;20018;-56
2023/01/18 07:18:42;;;;;;;10.32;6.85;;;1.20;99.90;;;;;;5033266;28;20465;-58
2023/01/18 07:21:09;;;;;;;10.75;6.43;;;1.20;99.90;;;;;;5033432;28;20124;-57
2023/01/18 07:23:36;;;;;;;9.43;6.78;;;1.20;99.90;;;;;;5032001;28;20034;-54
2023/01/18 07:29:25;;;;;;;11.07;5.85;;;1.30;99.90;;;;;;5033319;28;20542;-57
2023/01/18 07:31:50;;;;;;;9.60;6.38;;;1.30;99.90;;;;;;5032758;28;20026;-55
2023/01/18 07:34:16;;;;;;;7.68;5.80;;;1.30;99.90;;;;;;5033087;28;20018;-56
2023/01/18 07:36:43;;;;;;;6.70;4.60;;;1.30;99.90;;;;;;5032777;28;20028;-53
2023/01/18 07:39:09;;;;;;;6.68;5.13;;;1.30;99.90;;;;;;5033113;28;20045;-58
2023/01/18 07:41:35;;;;;;;7.82;4.90;;;1.30;99.90;;;;;;5032849;28;20543;-54
2023/01/18 07:44:00;;;;;;;8.57;5.53;;;1.30;99.90;;;;;;5032910;28;20033;-56
2023/01/18 07:46:26;;;;;;;8.52;6.68;;;1.30;99.90;;;;;;5032629;28;20500;-57
2023/01/18 07:48:52;;;;;;;10.00;5.57;;;1.30;99.90;;;;;;5032754;28;20060;-51
2023/01/18 07:51:21;;;;;;;8.02;6.13;;;1.40;99.90;;;;;;5032593;28;20071;-58
2023/01/18 07:53:47;;;;;;;7.07;5.68;;;1.40;99.90;;;;;;5032675;28;20392;-55
2023/01/18 07:56:15;;;;;;;9.73;5.40;;;1.40;99.90;;;;;;5032738;28;20516;-57
2023/01/18 07:58:41;;;;;;;10.45;6.70;;;1.40;99.90;;;;;;5031526;28;20092;-56
2023/01/18 08:01:10;;;;;;;10.32;6.60;;;1.40;99.90;;;;;;5032669;28;20026;-54
2023/01/18 08:03:36;;;;;;;10.45;7.65;;;1.50;99.90;;;;;;5032474;28;20025;-57
2023/01/18 08:06:04;;;;;;;26.35;16.38;;;1.50;99.90;;;;;;5032576;28;20028;-54
2023/01/18 08:08:30;;;;;;;27.77;14.07;;;1.60;99.90;;;;;;5032503;28;20565;-57
2023/01/18 08:10:57;;;;;;;11.32;8.77;;;1.60;99.90;;;;;;5032316;28;20079;-53
2023/01/18 08:13:24;;;;;;;16.73;8.15;;;1.60;99.90;;;;;;5030955;28;20030;-57
2023/01/18 08:15:50;;;;;;;8.60;6.15;;;1.70;99.90;;;;;;5030945;28;20025;-53
2023/01/18 08:18:16;;;;;;;8.88;6.32;;;1.70;99.90;;;;;;5032415;28;20026;-57
2023/01/18 08:20:46;;;;;;;9.52;6.80;;;1.80;99.90;;;;;;5032108;28;20548;-58
2023/01/18 08:23:12;;;;;;;12.13;8.52;;;1.80;99.90;;;;;;5032278;28;20033;-57
2023/01/18 08:25:38;;;;;;;15.75;7.20;;;1.80;99.90;;;;;;5032076;28;20057;-53
2023/01/18 08:28:04;;;;;;;8.43;6.45;;;1.80;99.90;;;;;;5030722;28;20053;-56
2023/01/18 08:30:34;;;;;;;13.27;8.45;;;1.90;99.90;;;;;;5031923;28;20040;-59
2023/01/18 08:33:01;;;;;;;9.13;7.18;;;2.00;99.90;;;;;;5032037;28;20029;-56
2023/01/18 08:35:30;;;;;;;6.65;5.68;;;2.00;99.90;;;;;;5031919;28;20385;-55
2023/01/18 08:37:57;;;;;;;8.85;5.90;;;2.00;99.90;;;;;;5031679;28;20055;-56
2023/01/18 08:40:23;;;;;;;7.90;5.22;;;2.00;99.90;;;;;;5031884;28;20034;-57
2023/01/18 08:42:49;;;;;;;6.28;5.15;;;2.10;99.90;;;;;;5031553;28;20045;-54
2023/01/18 08:45:15;;;;;;;6.45;5.22;;;2.10;99.90;;;;;;5031907;28;20087;-56
2023/01/18 08:47:41;;;;;;;5.47;4.40;;;2.10;99.90;;;;;;5031636;28;20022;-54
2023/01/18 08:50:08;;;;;;;4.93;4.40;;;2.20;99.90;;;;;;5031618;28;20550;-55
2023/01/18 08:52:34;;;;;;;8.95;6.28;;;2.30;99.90;;;;;;5031687;28;20396;-58
2023/01/18 08:55:04;;;;;;;85.75;35.70;;;2.30;99.90;;;;;;5031542;28;20034;-57
2023/01/18 08:57:30;;;;;;;108.38;41.65;;;2.30;99.90;;;;;;5031622;28;20380;-53
2023/01/18 08:59:56;;;;;;;124.97;43.95;;;2.30;99.90;;;;;;5031474;28;20385;-57
2023/01/18 09:02:23;;;;;;;66.40;28.55;;;2.40;99.90;;;;;;5031543;28;20022;-54
2023/01/18 09:04:49;;;;;;;66.05;29.13;;;2.40;99.90;;;;;;5031516;28;20026;-54
2023/01/18 09:07:16;;;;;;;6.38;5.78;;;2.40;99.90;;;;;;5030930;28;20021;-57
2023/01/18 09:09:43;;;;;;;7.38;4.63;;;2.60;99.90;;;;;;5028985;28;20028;-55
2023/01/18 09:12:10;;;;;;;8.43;4.97;;;2.60;99.90;;;;;;5031081;28;20052;-58
2023/01/18 09:14:35;;;;;;;10.90;5.90;;;2.60;99.90;;;;;;5029731;28;20022;-57
2023/01/18 09:17:01;;;;;;;6.90;5.28;;;2.60;99.90;;;;;;5031438;28;20026;-57
2023/01/18 09:19:27;;;;;;;6.93;5.40;;;2.60;99.90;;;;;;5031434;28;20029;-54
2023/01/18 09:21:53;;;;;;;5.78;4.47;;;2.70;99.90;;;;;;5031411;28;20039;-57
2023/01/18 09:24:18;;;;;;;6.80;4.93;;;2.70;99.90;;;;;;5031318;28;20030;-56
2023/01/18 09:26:46;;;;;;;5.30;4.80;;;2.80;99.90;;;;;;5031385;28;20040;-56
2023/01/18 09:29:11;;;;;;;6.22;4.97;;;2.80;99.90;;;;;;5030055;28;20090;-57
2023/01/18 09:31:37;;;;;;;26.10;15.10;;;2.80;99.90;;;;;;5030523;28;20465;-56
2023/01/18 09:34:03;;;;;;;9.50;4.95;;;2.80;99.90;;;;;;5030458;28;20361;-52
2023/01/18 09:36:29;;;;;;;7.35;5.10;;;2.90;99.90;;;;;;5030590;28;20068;-58
2023/01/18 09:38:55;;;;;;;7.90;4.53;;;3.00;99.90;;;;;;5030845;28;20028;-52
2023/01/18 09:41:24;;;;;;;4.22;3.83;;;3.00;99.90;;;;;;5026875;28;20781;-54
2023/01/18 09:43:53;;;;;;;21.35;10.02;;;3.10;99.90;;;;;;5027425;28;20112;-56
2023/01/18 09:46:21;;;;;;;5.20;4.70;;;3.10;99.90;;;;;;5030185;28;20660;-54
2023/01/18 09:48:59;;;;;;;10.23;6.28;;;3.30;99.90;;;;;;5031012;28;20049;-56
2023/01/18 09:51:31;;;;;;;4.18;3.47;;;3.30;99.90;;;;;;5030668;28;20053;-54
2023/01/18 09:54:58;;;;;;;3.65;3.35;;;3.40;99.90;;;;;;5030517;28;20025;-53
2023/01/18 09:57:43;;;;;;;6.63;3.72;;;3.40;99.90;;;;;;4973892;28;20185;-55
2023/01/18 10:00:23;;;;;;;3.83;3.20;;;3.50;99.90;;;;;;5029218;28;20025;-54
2023/01/18 10:02:54;;;;;;;4.15;3.30;;;3.60;99.90;;;;;;5030324;28;20025;-55
2023/01/18 10:05:24;;;;;;;3.75;3.28;;;3.70;99.90;;;;;;5028510;28;20018;-52
2023/01/18 10:08:02;;;;;;;4.82;3.22;;;3.80;99.90;;;;;;5030162;28;20056;-53
2023/01/18 10:10:50;;;;;;;4.13;3.47;;;3.80;99.90;;;;;;5030582;28;20079;-55
2023/01/18 10:13:25;;;;;;;2.65;2.45;;;4.00;99.90;;;;;;5030549;28;20022;-56
2023/01/18 10:15:51;;;;;;;3.60;2.70;;;4.10;99.90;;;;;;5029666;28;20017;-53
2023/01/18 10:18:17;;;;;;;4.80;3.55;;;4.20;99.90;;;;;;5029606;28;20027;-58
2023/01/18 10:21:03;;;;;;;8.73;7.93;;;4.30;99.90;;;;;;5030093;28;20029;-55
2023/01/18 10:23:40;;;;;;;2.40;2.20;;;4.80;99.90;;;;;;5032108;28;20021;-57
2023/01/18 10:26:35;;;;;;;2.38;2.28;;;5.30;99.90;;;;;;5034126;28;20032;-55
2023/01/18 10:29:20;;;;;;;2.38;2.28;;;5.90;99.90;;;;;;5024927;28;20034;-57
2023/01/18 10:31:52;;;;;;;1.70;1.60;;;7.40;99.90;;;;;;5033477;28;20025;-56
2023/01/18 10:34:20;;;;;;;2.17;2.00;;;9.10;99.90;;;;;;5033268;28;20079;-57
2023/01/18 10:36:51;;;;;;;1.17;1.17;;;9.70;96.20;;;;;;5033806;28;20392;-54
2023/01/18 10:39:57;;;;;;;1.50;1.40;;;10.80;94.40;;;;;;5033700;28;20022;-52
2023/01/18 10:42:44;;;;;;;1.55;1.45;;;12.70;86.40;;;;;;5011292;28;20045;-55
2023/01/18 10:45:20;;;;;;;1.98;1.33;;;13.20;81.30;;;;;;5032474;28;20056;-54
2023/01/18 10:47:51;;;;;;;1.52;1.10;;;12.70;78.50;;;;;;5033387;28;20113;-50
2023/01/18 10:50:23;;;;;;;1.20;1.10;;;13.10;75.90;;;;;;5033515;28;20036;-54
2023/01/18 10:52:49;;;;;;;1.27;1.17;;;13.70;74.20;;;;;;5031429;28;20029;-56
2023/01/18 10:55:17;;;;;;;1.80;1.23;;;14.10;71.90;;;;;;5032747;28;20472;-56
2023/01/18 10:57:55;;;;;;;1.10;1.00;;;14.20;68.20;;;;;;5031994;28;20036;-54
2023/01/18 11:00:32;;;;;;;1.48;1.20;;;15.40;65.70;;;;;;5032919;28;20342;-58
2023/01/18 11:03:00;;;;;;;1.55;1.23;;;15.10;63.10;;;;;;5033060;28;20022;-57
2023/01/18 11:05:36;;;;;;;1.55;1.25;;;14.10;62.80;;;;;;5033003;28;20083;-55
2023/01/18 11:08:22;;;;;;;2.33;1.30;;;12.60;66.90;;;;;;5032854;28;20025;-59
2023/01/18 11:11:11;;;;;;;1.50;1.40;;;12.80;67.50;;;;;;5032555;28;20036;-58
2023/01/18 11:13:45;;;;;;;1.55;1.13;;;13.50;65.10;;;;;;5032252;28;20041;-57
2023/01/18 11:16:16;;;;;;;1.80;1.30;;;15.00;63.00;;;;;;5033198;28;20374;-56
2023/01/18 11:18:54;;;;;;;1.80;1.30;;;14.50;62.90;;;;;;5033135;28;20020;-57
2023/01/18 11:21:20;;;;;;;3.20;1.40;;;13.80;62.30;;;;;;5033374;28;20083;-51
2023/01/18 11:23:45;;;;;;;1.80;1.23;;;12.90;65.30;;;;;;5032659;28;20120;-57
2023/01/18 11:26:16;;;;;;;1.85;1.55;;;11.00;68.10;;;;;;5032900;28;20028;-58
2023/01/18 11:29:05;;;;;;;1.48;1.38;;;10.50;68.90;;;;;;5030325;28;20040;-57
2023/01/18 11:31:53;;;;;;;1.80;1.70;;;9.60;73.20;;;;;;5002692;28;20596;-57
2023/01/18 11:34:40;;;;;;;1.65;1.55;;;9.40;74.20;;;;;;5002577;28;20034;-56
2023/01/18 11:37:30;;;;;;;1.80;1.67;;;9.10;76.30;;;;;;5002372;28;20042;-57
2023/01/18 11:39:56;;;;;;;4.20;1.98;;;8.70;79.10;;;;;;5002163;28;20033;-58
2023/01/18 11:42:36;;;;;;;1.98;1.88;;;8.30;81.00;;;;;;5002297;28;20029;-57
2023/01/18 11:45:27;;;;;;;2.17;1.88;;;7.90;82.20;;;;;;5006679;28;20185;-59
2023/01/18 11:48:22;;;;;;;2.33;1.90;;;7.50;83.80;;;;;;5001353;28;20030;-53
2023/01/18 11:50:53;;;;;;;8.07;6.00;;;7.00;87.10;;;;;;5000796;28;20034;-54
2023/01/18 11:53:25;;;;;;;2.38;2.17;;;7.00;90.00;;;;;;5002086;28;20469;-56
2023/01/18 11:56:03;;;;;;;2.30;2.10;;;6.90;90.30;;;;;;5000748;28;20038;-54
2023/01/18 11:58:29;;;;;;;2.00;1.90;;;6.80;90.50;;;;;;5001244;28;20034;-57
2023/01/18 12:01:13;;;;;;;3.97;2.47;;;6.80;91.30;;;;;;5001051;28;20128;-58
2023/01/18 12:04:10;;;;;;;2.80;2.22;;;6.90;91.80;;;;;;5001573;28;20030;-57
2023/01/18 12:07:02;;;;;;;2.05;1.92;;;6.40;92.00;;;;;;5001511;28;20029;-58
2023/01/18 12:09:39;;;;;;;2.33;1.80;;;6.70;92.50;;;;;;5000830;28;20034;-56
2023/01/18 12:12:33;;;;;;;6.25;2.03;;;7.20;91.90;;;;;;5000515;28;20369;-58
2023/01/18 12:15:09;;;;;;;3.93;2.00;;;7.20;91.90;;;;;;5000779;28;20057;-58
2023/01/18 12:17:48;;;;;;;3.22;2.15;;;7.70;91.80;;;;;;5000682;28;20265;-53
2023/01/18 12:20:39;;;;;;;1.70;1.60;;;8.00;90.40;;;;;;5002659;28;20053;-56
2023/01/18 12:23:10;;;;;;;1.55;1.45;;;8.60;88.20;;;;;;5010151;28;20018;-54
2023/01/18 12:26:00;;;;;;;1.50;1.40;;;8.80;86.60;;;;;;5012046;28;20013;-54
2023/01/18 12:28:34;;;;;;;5.53;1.65;;;8.50;86.30;;;;;;5011824;28;20192;-57
2023/01/18 12:31:12;;;;;;;2.70;1.67;;;8.40;88.20;;;;;;5011198;28;20033;-56
2023/01/18 12:33:56;;;;;;;4.63;1.77;;;8.20;89.50;;;;;;5011759;28;20026;-54
2023/01/18 12:36:41;;;;;;;1.92;1.60;;;8.00;90.00;;;;;;5017320;28;20144;-56
2023/01/18 12:39:30;;;;;;;3.50;1.80;;;8.20;88.90;;;;;;5031608;28;20017;-55
2023/01/18 12:42:03;;;;;;;4.00;1.55;;;8.00;91.10;;;;;;5031419;28;20029;-57
2023/01/18 12:44:37;;;;;;;1.75;1.58;;;7.80;90.00;;;;;;5030886;28;20036;-53
2023/01/18 12:47:11;;;;;;;1.75;1.65;;;7.60;90.30;;;;;;5031128;28;20535;-54
2023/01/18 12:49:41;;;;;;;1.70;1.60;;;7.40;90.60;;;;;;5030953;28;20034;-52
2023/01/18 12:52:13;;;;;;;2.55;2.35;;;7.20;91.50;;;;;;5030877;28;20072;-55
2023/01/18 12:54:46;;;;;;;3.17;2.72;;;7.00;91.60;;;;;;5030944;28;20626;-55
2023/01/18 12:57:15;;;;;;;2.50;2.03;;;6.90;92.50;;;;;;5031203;28;20032;-56
2023/01/18 12:59:47;;;;;;;1.92;1.80;;;6.80;93.40;;;;;;5030868;28;20040;-54
2023/01/18 13:02:25;;;;;;;1.90;1.80;;;6.70;93.20;;;;;;5031462;28;20025;-56
2023/01/18 13:05:02;;;;;;;4.18;3.28;;;6.60;92.20;;;;;;5031120;28;20345;-55
2023/01/18 13:07:38;;;;;;;10.07;3.53;;;6.40;92.70;;;;;;5031578;28;20029;-54
2023/01/18 13:10:12;;;;;;;2.92;1.83;;;6.20;92.70;;;;;;5029995;28;20476;-57
2023/01/18 13:12:39;;;;;;;1.80;1.70;;;6.30;93.10;;;;;;5030874;28;20025;-57
2023/01/18 13:15:14;;;;;;;1.70;1.60;;;6.60;92.40;;;;;;5030988;28;20017;-55
2023/01/18 13:18:09;;;;;;;1.67;1.58;;;6.90;92.30;;;;;;5030489;28;20589;-56
2023/01/18 13:20:47;;;;;;;17.60;6.70;;;7.00;91.80;;;;;;5015603;28;20037;-57
2023/01/18 13:23:50;;;;;;;108.57;46.35;;;6.80;91.30;;;;;;5031295;28;20477;-56
2023/01/18 13:26:29;;;;;;;5.05;3.42;;;6.90;92.10;;;;;;5031393;28;20038;-57
2023/01/18 13:29:28;;;;;;;5.50;3.70;;;7.10;91.70;;;;;;5030730;28;20021;-58
2023/01/18 13:31:57;;;;;;;2.20;2.03;;;7.10;91.40;;;;;;5030959;28;20450;-57
2023/01/18 13:34:27;;;;;;;1.88;1.77;;;7.20;91.40;;;;;;5030875;28;20478;-57
2023/01/18 13:36:53;;;;;;;3.22;2.97;;;7.10;91.70;;;;;;5030949;28;20139;-55
2023/01/18 13:39:20;;;;;;;2.13;1.88;;;7.00;91.80;;;;;;5030734;28;20038;-55
2023/01/18 13:42:03;;;;;;;4.72;3.78;;;6.90;92.70;;;;;;5029976;28;20029;-58
2023/01/18 13:44:41;;;;;;;2.90;2.60;;;6.80;93.10;;;;;;5030139;28;20026;-54
2023/01/18 13:47:38;;;;;;;6.43;3.40;;;6.90;92.50;;;;;;5030385;28;20021;-55
2023/01/18 13:50:38;;;;;;;5.85;3.55;;;7.00;92.90;;;;;;5030306;28;20109;-55
2023/01/18 13:53:13;;;;;;;3.67;2.83;;;7.10;92.40;;;;;;5029356;28;20025;-55